Time;durP1;ratioP1;P1;durP2;ratioP2;P2;SDS_P1;SDS_P2;PMS_P1;PMS_P2;Temp;Humidity;BMP_temperature;BMP_pressure;BME280_temperature;BME280_humidity;BME280_pressure;Samples;Min_cycle;Max_cycle;Signal;HPM_P1;HPM_P2
2023/08/18 00:01:09;;;;;;;1.48;1.38;;;20.90;99.90;;;;;;5120048;27;20212;-80
2023/08/18 00:03:37;;;;;;;1.52;1.42;;;20.80;99.90;;;;;;5122352;27;20258;-78
2023/08/18 00:06:05;;;;;;;1.60;1.50;;;20.80;99.90;;;;;;5118782;27;20247;-78
2023/08/18 00:08:33;;;;;;;1.65;1.55;;;20.80;99.90;;;;;;5118320;27;20801;-78
2023/08/18 00:11:00;;;;;;;1.65;1.33;;;20.80;99.90;;;;;;5121722;27;20226;-78
2023/08/18 00:13:27;;;;;;;1.75;1.63;;;20.80;99.90;;;;;;5121712;27;20232;-76
2023/08/18 00:15:54;;;;;;;1.52;1.42;;;20.90;99.90;;;;;;5123273;27;20274;-78
2023/08/18 00:18:21;;;;;;;1.73;1.63;;;20.90;99.90;;;;;;5125015;27;20232;-78
2023/08/18 00:20:50;;;;;;;1.83;1.73;;;20.90;99.90;;;;;;5127676;27;20268;-79
2023/08/18 00:23:17;;;;;;;1.73;1.63;;;20.90;99.90;;;;;;5121788;27;20204;-77
2023/08/18 00:25:45;;;;;;;1.92;1.75;;;20.80;99.90;;;;;;5119298;27;20244;-78
2023/08/18 00:28:13;;;;;;;1.80;1.70;;;20.80;99.90;;;;;;5126501;27;20228;-78
2023/08/18 00:30:39;;;;;;;1.98;1.60;;;20.80;99.90;;;;;;5116520;27;20189;-77
2023/08/18 00:33:06;;;;;;;1.98;1.88;;;20.80;99.90;;;;;;5120680;27;20196;-77
2023/08/18 00:35:34;;;;;;;1.58;1.48;;;20.80;99.90;;;;;;5115507;27;20636;-77
2023/08/18 00:38:01;;;;;;;2.17;1.70;;;20.80;99.90;;;;;;5123824;27;20279;-78
2023/08/18 00:40:28;;;;;;;1.75;1.58;;;20.70;99.90;;;;;;5118128;27;20257;-78
2023/08/18 00:42:57;;;;;;;1.67;1.58;;;20.80;99.90;;;;;;5118117;27;20627;-77
2023/08/18 00:45:29;;;;;;;2.00;1.90;;;20.70;99.90;;;;;;5115019;27;20307;-78
2023/08/18 00:47:57;;;;;;;2.20;2.00;;;20.80;99.90;;;;;;5120935;27;20207;-77
2023/08/18 00:50:25;;;;;;;2.20;2.00;;;20.80;99.90;;;;;;5113560;27;20849;-78
2023/08/18 00:52:57;;;;;;;3.15;2.00;;;20.80;99.90;;;;;;5123301;27;20287;-78
2023/08/18 00:55:26;;;;;;;1.73;1.63;;;20.80;99.90;;;;;;5113584;27;20698;-77
2023/08/18 00:57:56;;;;;;;1.77;1.67;;;20.80;99.90;;;;;;5120045;27;20693;-78
2023/08/18 01:00:24;;;;;;;1.80;1.70;;;20.80;99.90;;;;;;5116700;27;20608;-78
2023/08/18 01:02:51;;;;;;;1.73;1.63;;;20.70;99.90;;;;;;5114699;27;20208;-78
2023/08/18 01:05:19;;;;;;;1.80;1.70;;;20.70;99.90;;;;;;5119518;27;20303;-79
2023/08/18 01:07:46;;;;;;;2.13;1.70;;;20.70;99.90;;;;;;5124295;28;20287;-78
2023/08/18 01:10:13;;;;;;;2.63;1.95;;;20.80;99.90;;;;;;5114595;28;20663;-80
2023/08/18 01:12:49;;;;;;;2.13;1.92;;;20.90;99.90;;;;;;5118004;28;20249;-78
2023/08/18 01:15:27;;;;;;;2.63;2.13;;;21.10;99.90;;;;;;5118824;28;20246;-78
2023/08/18 01:17:56;;;;;;;1.60;1.50;;;21.00;99.90;;;;;;5123010;28;20611;-78
2023/08/18 01:20:23;;;;;;;2.08;1.75;;;20.90;99.90;;;;;;5116076;28;20236;-79
2023/08/18 01:22:57;;;;;;;2.83;1.70;;;20.80;99.90;;;;;;5122272;28;20206;-78
2023/08/18 01:25:24;;;;;;;1.90;1.80;;;20.80;99.90;;;;;;5119849;28;20686;-78
2023/08/18 01:27:52;;;;;;;2.00;1.90;;;20.70;99.90;;;;;;5119875;28;20643;-78
2023/08/18 01:30:20;;;;;;;2.90;1.90;;;20.70;99.90;;;;;;5118991;28;20193;-78
2023/08/18 01:32:52;;;;;;;2.20;2.00;;;20.60;99.90;;;;;;5118232;28;20324;-77
2023/08/18 01:35:21;;;;;;;2.05;1.90;;;20.60;99.90;;;;;;5116921;28;20248;-78
2023/08/18 01:37:50;;;;;;;1.65;1.55;;;20.60;99.90;;;;;;5115833;28;20228;-78
2023/08/18 01:40:20;;;;;;;1.95;1.85;;;20.60;99.90;;;;;;5115747;28;20201;-78
2023/08/18 01:42:48;;;;;;;1.80;1.70;;;20.60;99.90;;;;;;5120599;28;20246;-77
2023/08/18 01:45:15;;;;;;;1.90;1.80;;;20.50;99.90;;;;;;5119384;28;20273;-78
2023/08/18 01:47:42;;;;;;;1.95;1.83;;;20.50;99.90;;;;;;5115144;28;20280;-77
2023/08/18 01:50:10;;;;;;;2.00;1.75;;;20.40;99.90;;;;;;5120457;28;20249;-79
2023/08/18 01:52:37;;;;;;;2.33;2.13;;;20.40;99.90;;;;;;5118849;27;20257;-77
2023/08/18 01:55:04;;;;;;;1.73;1.63;;;20.40;99.90;;;;;;5119453;28;20208;-78
2023/08/18 01:57:32;;;;;;;3.03;2.10;;;20.40;99.90;;;;;;5121093;28;20257;-78
2023/08/18 02:00:00;;;;;;;3.38;2.13;;;20.50;99.90;;;;;;5119496;28;20204;-77
2023/08/18 02:02:26;;;;;;;2.85;1.90;;;20.50;99.90;;;;;;5115527;28;20267;-77
2023/08/18 02:04:56;;;;;;;2.05;1.88;;;20.50;99.90;;;;;;5118869;28;20583;-79
2023/08/18 02:07:23;;;;;;;2.15;1.95;;;20.50;99.90;;;;;;5117502;28;20231;-77
2023/08/18 02:09:50;;;;;;;2.40;1.80;;;20.50;99.90;;;;;;5118509;28;20232;-77
2023/08/18 02:12:17;;;;;;;1.90;1.80;;;20.50;99.90;;;;;;5118149;28;20236;-79
2023/08/18 02:14:45;;;;;;;1.73;1.63;;;20.50;99.90;;;;;;5123789;28;20228;-77
2023/08/18 02:17:13;;;;;;;3.33;1.73;;;20.50;99.90;;;;;;5113231;27;20265;-79
2023/08/18 02:19:40;;;;;;;1.67;1.58;;;20.40;99.90;;;;;;5118853;28;20243;-79
2023/08/18 02:22:07;;;;;;;1.90;1.80;;;20.40;99.90;;;;;;5117127;27;20227;-78
2023/08/18 02:24:35;;;;;;;2.25;1.67;;;20.40;99.90;;;;;;5123084;27;20273;-76
2023/08/18 02:27:01;;;;;;;1.90;1.73;;;20.40;99.90;;;;;;5125314;27;20216;-78
2023/08/18 02:29:28;;;;;;;2.13;1.90;;;20.50;99.90;;;;;;5122186;27;20208;-77
2023/08/18 02:31:57;;;;;;;2.38;2.17;;;20.40;99.90;;;;;;5128207;27;20261;-77
2023/08/18 02:34:24;;;;;;;2.13;1.95;;;20.40;99.90;;;;;;5117066;27;20204;-77
2023/08/18 02:36:51;;;;;;;2.20;2.00;;;20.40;99.90;;;;;;5115171;27;20344;-78
2023/08/18 02:39:18;;;;;;;1.98;1.88;;;20.30;99.90;;;;;;5121215;27;20258;-78
2023/08/18 02:41:44;;;;;;;1.60;1.50;;;20.20;99.90;;;;;;5121017;27;20687;-76
2023/08/18 02:44:12;;;;;;;4.38;2.10;;;20.20;99.90;;;;;;5124547;27;20637;-77
2023/08/18 02:46:38;;;;;;;5.38;1.88;;;20.30;99.90;;;;;;5121973;27;20925;-76
2023/08/18 02:49:07;;;;;;;1.83;1.60;;;20.30;99.90;;;;;;5125387;27;20192;-78
2023/08/18 02:51:34;;;;;;;3.40;1.90;;;20.30;99.90;;;;;;5125526;27;20560;-76
2023/08/18 02:54:01;;;;;;;1.70;1.60;;;20.30;99.90;;;;;;5124929;27;20237;-76
2023/08/18 02:56:28;;;;;;;1.83;1.70;;;20.30;99.90;;;;;;5121590;27;20216;-77
2023/08/18 02:58:56;;;;;;;1.80;1.70;;;20.30;99.90;;;;;;5123052;27;20204;-76
2023/08/18 03:01:23;;;;;;;1.92;1.80;;;20.20;99.90;;;;;;5120504;27;20655;-78
2023/08/18 03:03:50;;;;;;;1.90;1.80;;;20.20;99.90;;;;;;5121081;27;20254;-77
2023/08/18 03:06:18;;;;;;;2.03;1.92;;;20.20;99.90;;;;;;5121037;27;20251;-77
2023/08/18 03:08:45;;;;;;;2.28;1.80;;;20.10;99.90;;;;;;5127907;27;20250;-77
2023/08/18 03:11:12;;;;;;;1.77;1.67;;;20.10;99.90;;;;;;5120143;27;20204;-80
2023/08/18 03:13:39;;;;;;;4.30;1.70;;;20.10;99.90;;;;;;5121158;27;20669;-77
2023/08/18 03:16:06;;;;;;;2.03;1.92;;;20.20;99.90;;;;;;5122687;27;20228;-77
2023/08/18 03:18:33;;;;;;;1.92;1.83;;;20.20;99.90;;;;;;5119944;27;20201;-79
2023/08/18 03:21:03;;;;;;;2.10;1.90;;;20.20;99.90;;;;;;5118824;27;20200;-77
2023/08/18 03:23:31;;;;;;;2.03;1.90;;;20.20;99.90;;;;;;5124446;27;20270;-77
2023/08/18 03:26:04;;;;;;;2.05;1.85;;;20.10;99.90;;;;;;5122151;27;20220;-77
2023/08/18 03:28:34;;;;;;;1.73;1.63;;;20.10;99.90;;;;;;5122683;27;20287;-78
2023/08/18 03:31:02;;;;;;;2.65;1.80;;;20.20;99.90;;;;;;5123791;27;20204;-76
2023/08/18 03:33:30;;;;;;;1.90;1.80;;;20.40;99.90;;;;;;5125557;27;20863;-78
2023/08/18 03:35:57;;;;;;;2.47;2.03;;;20.40;99.90;;;;;;5119467;27;20601;-76
2023/08/18 03:38:25;;;;;;;2.03;1.92;;;20.40;99.90;;;;;;5121913;27;20205;-77
2023/08/18 03:40:58;;;;;;;2.35;1.90;;;20.30;99.90;;;;;;5121709;27;20269;-77
2023/08/18 03:43:25;;;;;;;2.78;2.15;;;20.20;99.90;;;;;;5126368;27;20254;-78
2023/08/18 03:45:52;;;;;;;2.05;1.95;;;20.10;99.90;;;;;;5116936;27;20252;-78
2023/08/18 03:48:19;;;;;;;2.03;1.92;;;20.00;99.90;;;;;;5120876;27;20234;-77
2023/08/18 03:50:46;;;;;;;2.65;2.00;;;20.10;99.90;;;;;;5114594;27;20203;-77
2023/08/18 03:53:14;;;;;;;2.28;2.10;;;20.10;99.90;;;;;;5119393;27;20196;-78
2023/08/18 03:55:41;;;;;;;4.00;1.92;;;20.10;99.90;;;;;;5117862;27;20728;-76
2023/08/18 03:58:09;;;;;;;2.08;1.83;;;20.20;99.90;;;;;;5123961;27;20200;-77
2023/08/18 04:00:36;;;;;;;2.10;1.90;;;20.30;99.90;;;;;;5119220;27;20266;-77
2023/08/18 04:03:03;;;;;;;2.05;1.95;;;20.30;99.90;;;;;;5117309;27;20222;-77
2023/08/18 04:05:30;;;;;;;3.10;2.05;;;20.30;99.90;;;;;;5120668;27;20216;-77
2023/08/18 04:07:57;;;;;;;1.85;1.75;;;20.30;99.90;;;;;;5123711;27;20228;-78
2023/08/18 04:10:24;;;;;;;2.33;1.85;;;20.30;99.90;;;;;;5118453;27;20675;-77
2023/08/18 04:12:51;;;;;;;1.60;1.50;;;20.20;99.90;;;;;;5119427;27;20200;-78
2023/08/18 04:15:19;;;;;;;1.88;1.77;;;20.20;99.90;;;;;;5121916;27;20217;-77
2023/08/18 04:17:46;;;;;;;3.30;1.85;;;20.20;99.90;;;;;;5119448;27;20197;-77
2023/08/18 04:20:13;;;;;;;2.72;1.70;;;20.20;99.90;;;;;;5120412;27;20228;-77
2023/08/18 04:22:40;;;;;;;1.73;1.63;;;20.20;99.90;;;;;;5124089;27;20254;-79
2023/08/18 04:25:08;;;;;;;2.00;1.83;;;20.20;99.90;;;;;;5122163;27;20222;-77
2023/08/18 04:27:35;;;;;;;2.20;2.00;;;20.20;99.90;;;;;;5121190;27;20228;-77
2023/08/18 04:30:03;;;;;;;1.90;1.65;;;20.10;99.90;;;;;;5115563;27;20224;-76
2023/08/18 04:32:31;;;;;;;1.60;1.50;;;20.00;99.90;;;;;;5120503;27;20204;-76
2023/08/18 04:35:01;;;;;;;2.00;1.80;;;20.00;99.90;;;;;;5122800;27;20257;-76
2023/08/18 04:37:28;;;;;;;2.00;1.90;;;20.00;99.90;;;;;;5120784;27;20243;-78
2023/08/18 04:39:55;;;;;;;2.35;1.52;;;20.00;99.90;;;;;;5124736;27;20196;-77
2023/08/18 04:42:22;;;;;;;1.80;1.70;;;19.90;99.90;;;;;;5122886;27;20199;-77
2023/08/18 04:44:49;;;;;;;2.60;2.10;;;20.00;99.90;;;;;;5119548;27;20265;-76
2023/08/18 04:47:16;;;;;;;2.38;2.03;;;20.00;99.90;;;;;;5117985;27;20228;-78
2023/08/18 04:49:44;;;;;;;1.95;1.85;;;20.10;99.90;;;;;;5125958;27;20204;-78
2023/08/18 04:52:11;;;;;;;1.80;1.70;;;20.10;99.90;;;;;;5122483;27;20254;-76
2023/08/18 04:54:38;;;;;;;4.43;1.77;;;20.20;99.90;;;;;;5116479;27;20249;-77
2023/08/18 04:57:07;;;;;;;2.08;1.73;;;20.30;99.90;;;;;;5126004;27;20240;-77
2023/08/18 04:59:34;;;;;;;2.08;1.88;;;20.30;99.90;;;;;;5119189;27;20205;-77
2023/08/18 05:02:01;;;;;;;2.20;2.00;;;20.40;99.90;;;;;;5117400;27;20223;-79
2023/08/18 05:04:28;;;;;;;2.35;2.15;;;20.50;99.90;;;;;;5114846;27;20242;-77
2023/08/18 05:06:56;;;;;;;1.80;1.70;;;20.40;99.90;;;;;;5118011;27;20284;-78
2023/08/18 05:09:25;;;;;;;3.30;1.90;;;20.40;99.90;;;;;;5119020;28;20268;-77
2023/08/18 05:11:52;;;;;;;2.03;1.90;;;20.40;99.90;;;;;;5120982;28;20278;-77
2023/08/18 05:14:19;;;;;;;2.83;2.10;;;20.40;99.90;;;;;;5116008;28;20224;-78
2023/08/18 05:16:46;;;;;;;1.60;1.50;;;20.30;99.90;;;;;;5112357;28;20269;-78
2023/08/18 05:19:12;;;;;;;2.13;1.80;;;20.30;99.90;;;;;;5121545;28;20614;-77
2023/08/18 05:21:39;;;;;;;2.42;1.88;;;20.40;99.90;;;;;;5114716;28;20261;-77
2023/08/18 05:24:08;;;;;;;1.90;1.80;;;20.40;99.90;;;;;;5126953;28;20200;-77
2023/08/18 05:26:35;;;;;;;2.50;2.00;;;20.40;99.90;;;;;;5117426;28;20252;-79
2023/08/18 05:29:02;;;;;;;2.45;1.83;;;20.40;99.90;;;;;;5120875;28;20201;-77
2023/08/18 05:31:30;;;;;;;2.80;1.90;;;20.40;99.90;;;;;;5114912;28;20219;-77
2023/08/18 05:33:57;;;;;;;2.30;1.73;;;20.40;99.90;;;;;;5121130;28;20281;-77
2023/08/18 05:36:24;;;;;;;1.80;1.42;;;20.40;99.90;;;;;;5114863;28;20224;-77
2023/08/18 05:38:51;;;;;;;2.03;1.92;;;20.40;99.90;;;;;;5111772;28;20201;-77
2023/08/18 05:41:19;;;;;;;1.77;1.67;;;20.50;99.90;;;;;;5116516;28;20224;-77
2023/08/18 05:43:46;;;;;;;2.08;1.85;;;20.50;99.90;;;;;;5119744;28;20235;-78
2023/08/18 05:46:13;;;;;;;2.10;2.00;;;20.50;99.90;;;;;;5123887;28;20221;-77
2023/08/18 05:48:49;;;;;;;1.70;1.60;;;20.60;99.90;;;;;;5124028;27;20250;-77
2023/08/18 05:51:18;;;;;;;1.83;1.73;;;20.60;99.90;;;;;;5123902;28;20204;-78
2023/08/18 05:53:59;;;;;;;1.70;1.60;;;20.60;99.90;;;;;;5127136;27;20249;-77
2023/08/18 05:56:33;;;;;;;2.05;1.95;;;20.50;99.90;;;;;;5126555;27;20830;-78
2023/08/18 05:59:00;;;;;;;2.20;2.00;;;20.50;99.90;;;;;;5129630;27;20243;-79
2023/08/18 06:01:27;;;;;;;2.15;2.05;;;20.60;99.90;;;;;;5127709;27;20287;-77
2023/08/18 06:03:54;;;;;;;2.28;1.92;;;20.60;99.90;;;;;;5126706;27;20231;-77
2023/08/18 06:06:21;;;;;;;2.08;1.95;;;20.70;99.90;;;;;;5137132;27;20228;-78
2023/08/18 06:08:48;;;;;;;2.15;1.80;;;20.80;99.90;;;;;;5131629;27;20242;-78
2023/08/18 06:11:15;;;;;;;2.70;2.10;;;20.80;99.90;;;;;;5127808;27;20199;-79
2023/08/18 06:13:43;;;;;;;3.38;1.70;;;20.90;99.90;;;;;;5133227;27;20197;-78
2023/08/18 06:16:10;;;;;;;1.98;1.88;;;20.90;99.90;;;;;;5124410;27;20224;-77
2023/08/18 06:18:38;;;;;;;2.60;2.05;;;20.90;99.90;;;;;;5136440;27;20222;-78
2023/08/18 06:21:18;;;;;;;2.40;2.20;;;20.90;99.90;;;;;;5126403;27;20678;-77
2023/08/18 06:23:48;;;;;;;2.25;2.03;;;20.90;99.90;;;;;;5127085;27;20258;-78
2023/08/18 06:26:31;;;;;;;2.55;2.00;;;21.10;99.90;;;;;;5133608;27;20299;-78
2023/08/18 06:29:06;;;;;;;3.25;2.38;;;21.20;99.90;;;;;;5127748;27;20200;-77
2023/08/18 06:31:33;;;;;;;2.60;2.30;;;21.30;99.90;;;;;;5128573;27;20229;-78
2023/08/18 06:34:06;;;;;;;2.22;2.03;;;21.40;99.90;;;;;;5122768;28;20614;-79
2023/08/18 06:36:38;;;;;;;2.65;2.28;;;21.50;99.90;;;;;;5129679;27;20215;-78
2023/08/18 06:39:05;;;;;;;2.75;2.55;;;21.50;99.90;;;;;;5126189;27;20197;-77
2023/08/18 06:41:33;;;;;;;2.40;2.20;;;21.30;99.90;;;;;;5139987;27;20196;-77
2023/08/18 06:46:50;;;;;;;2.42;2.22;;;21.40;99.90;;;;;;5134957;27;20256;-78
2023/08/18 06:52:09;;;;;;;3.20;2.63;;;21.50;99.90;;;;;;5131940;27;20232;-78
2023/08/18 06:54:36;;;;;;;2.60;2.40;;;21.60;99.90;;;;;;5135324;27;20208;-78
2023/08/18 06:57:03;;;;;;;2.45;2.25;;;21.70;99.90;;;;;;5128396;27;20221;-77
2023/08/18 06:59:31;;;;;;;2.63;2.42;;;21.80;99.90;;;;;;5129386;27;20260;-77
2023/08/18 07:04:42;;;;;;;3.13;2.10;;;22.00;99.90;;;;;;5127225;27;20205;-77
2023/08/18 07:07:14;;;;;;;2.88;2.63;;;21.90;99.90;;;;;;5138891;27;20650;-78
2023/08/18 07:15:48;;;;;;;2.92;2.33;;;22.10;99.90;;;;;;5122380;27;20228;-78
2023/08/18 07:18:20;;;;;;;2.78;2.45;;;22.10;99.90;;;;;;5132700;27;20200;-78
2023/08/18 07:20:47;;;;;;;3.35;2.10;;;22.10;99.90;;;;;;5128667;27;20201;-78
2023/08/18 07:23:14;;;;;;;2.50;2.30;;;22.30;99.90;;;;;;5127299;27;20231;-78
2023/08/18 07:25:42;;;;;;;4.00;2.55;;;22.40;99.90;;;;;;5128061;27;20272;-78
2023/08/18 07:28:09;;;;;;;3.22;2.10;;;22.40;99.90;;;;;;5129707;27;20672;-78
2023/08/18 07:30:36;;;;;;;2.05;1.95;;;22.50;99.90;;;;;;5136680;27;20232;-78
2023/08/18 07:33:05;;;;;;;2.53;2.25;;;22.80;99.90;;;;;;5125242;27;20264;-78
2023/08/18 07:35:31;;;;;;;2.40;2.20;;;23.00;99.90;;;;;;5127346;27;20710;-78
2023/08/18 07:37:59;;;;;;;2.78;2.08;;;23.10;99.90;;;;;;5131293;27;20238;-78
2023/08/18 07:40:27;;;;;;;3.25;2.20;;;23.30;99.90;;;;;;5123867;27;20215;-78
2023/08/18 07:42:54;;;;;;;3.15;2.00;;;23.30;99.90;;;;;;5129404;27;20208;-78
2023/08/18 07:45:21;;;;;;;2.30;2.10;;;23.40;99.90;;;;;;5119315;27;20698;-78
2023/08/18 07:47:48;;;;;;;2.58;2.40;;;23.30;99.90;;;;;;5117670;27;20213;-77
2023/08/18 07:50:17;;;;;;;3.08;2.35;;;23.20;99.90;;;;;;5115922;27;20284;-78
2023/08/18 07:52:44;;;;;;;2.50;2.30;;;23.00;99.90;;;;;;5123262;27;20236;-79
2023/08/18 07:55:11;;;;;;;3.60;2.50;;;22.80;99.90;;;;;;5124292;27;20249;-79
2023/08/18 07:57:38;;;;;;;2.55;2.35;;;22.70;99.90;;;;;;5125796;27;20220;-79
2023/08/18 08:00:10;;;;;;;3.20;2.45;;;22.80;99.90;;;;;;5127235;27;20192;-81
2023/08/18 08:02:37;;;;;;;3.17;2.15;;;23.10;99.90;;;;;;5117301;27;20201;-79
2023/08/18 08:05:05;;;;;;;3.67;2.35;;;23.40;99.90;;;;;;5121796;27;20204;-79
2023/08/18 08:07:34;;;;;;;2.83;2.50;;;23.50;99.90;;;;;;5121365;27;20205;-78
2023/08/18 08:10:03;;;;;;;2.30;2.10;;;23.50;99.90;;;;;;5119948;27;20670;-78
2023/08/18 08:12:30;;;;;;;2.40;2.20;;;23.60;99.90;;;;;;5116703;27;20213;-77
2023/08/18 08:14:57;;;;;;;3.05;2.65;;;24.00;99.90;;;;;;5116742;27;20229;-77
2023/08/18 08:17:25;;;;;;;3.15;2.33;;;24.30;99.90;;;;;;5112874;27;20281;-78
2023/08/18 08:19:52;;;;;;;2.70;2.50;;;24.40;99.90;;;;;;5113306;27;20224;-78
2023/08/18 08:22:19;;;;;;;3.45;2.40;;;24.70;99.90;;;;;;5118521;27;20231;-78
2023/08/18 08:24:48;;;;;;;2.50;2.28;;;24.90;99.90;;;;;;5115103;27;20705;-77
2023/08/18 08:27:15;;;;;;;5.22;2.53;;;25.10;99.90;;;;;;5115498;27;20215;-77
2023/08/18 08:29:45;;;;;;;2.85;2.63;;;25.40;99.90;;;;;;5115683;27;20208;-77
2023/08/18 08:32:12;;;;;;;3.90;2.63;;;25.50;99.90;;;;;;5119491;27;20220;-79
2023/08/18 08:34:40;;;;;;;3.47;2.33;;;25.50;99.90;;;;;;5115825;27;20663;-78
2023/08/18 08:37:07;;;;;;;3.05;2.58;;;25.50;99.90;;;;;;5114693;27;20307;-79
2023/08/18 08:39:34;;;;;;;5.65;2.50;;;25.80;99.90;;;;;;5112864;27;20248;-78
2023/08/18 08:42:03;;;;;;;3.05;2.42;;;26.00;99.90;;;;;;5119441;27;20226;-78
2023/08/18 08:44:29;;;;;;;2.92;2.70;;;25.90;99.90;;;;;;5114758;27;20201;-78
2023/08/18 08:46:58;;;;;;;3.83;2.53;;;25.70;99.90;;;;;;5118909;27;20252;-77
2023/08/18 08:49:30;;;;;;;2.95;2.50;;;25.50;99.90;;;;;;5112002;27;20208;-76
2023/08/18 08:52:08;;;;;;;2.20;2.05;;;25.50;99.90;;;;;;5114509;27;20254;-79
2023/08/18 08:54:38;;;;;;;2.60;2.40;;;25.60;99.90;;;;;;5118112;27;20257;-77
2023/08/18 08:57:09;;;;;;;3.35;2.80;;;25.90;99.90;;;;;;5113440;27;20213;-77
2023/08/18 08:59:36;;;;;;;3.00;2.28;;;25.80;99.90;;;;;;5111102;27;20201;-78
2023/08/18 09:02:03;;;;;;;4.10;2.35;;;25.80;99.90;;;;;;5112385;27;20589;-77
2023/08/18 09:04:31;;;;;;;3.17;2.58;;;25.70;99.90;;;;;;5120420;27;20196;-78
2023/08/18 09:06:58;;;;;;;2.97;2.75;;;25.70;99.90;;;;;;5114323;27;20219;-77
2023/08/18 09:09:25;;;;;;;4.30;2.50;;;25.50;99.90;;;;;;5112447;28;20295;-77
2023/08/18 09:11:52;;;;;;;2.88;2.17;;;25.30;99.90;;;;;;5114310;28;20227;-77
2023/08/18 09:14:20;;;;;;;2.85;2.40;;;25.10;99.90;;;;;;5118730;28;20232;-78
2023/08/18 09:16:48;;;;;;;2.17;2.03;;;24.90;99.90;;;;;;5115206;27;20240;-78
2023/08/18 09:19:16;;;;;;;3.65;2.58;;;24.80;99.90;;;;;;5113977;28;20201;-77
2023/08/18 09:21:43;;;;;;;2.58;2.38;;;24.60;99.90;;;;;;5113043;28;20228;-77
2023/08/18 09:24:10;;;;;;;4.13;2.58;;;24.50;99.90;;;;;;5115426;27;20228;-76
2023/08/18 09:26:37;;;;;;;3.08;2.60;;;24.50;99.90;;;;;;5111742;27;20217;-78
2023/08/18 09:29:04;;;;;;;2.47;2.28;;;24.70;99.90;;;;;;5113493;28;20923;-77
2023/08/18 09:31:33;;;;;;;2.50;2.30;;;25.00;99.90;;;;;;5113345;27;20806;-77
2023/08/18 09:34:02;;;;;;;3.15;2.63;;;25.20;99.90;;;;;;5118161;27;20264;-78
2023/08/18 09:36:31;;;;;;;2.97;2.70;;;25.40;99.90;;;;;;5115202;27;20224;-79
2023/08/18 09:38:58;;;;;;;2.90;2.70;;;25.50;99.90;;;;;;5117611;27;20242;-80
2023/08/18 09:41:26;;;;;;;3.88;2.25;;;25.70;99.90;;;;;;5118762;27;20235;-78
2023/08/18 09:43:53;;;;;;;4.95;2.45;;;25.80;99.90;;;;;;5118859;27;20659;-78
2023/08/18 09:46:23;;;;;;;2.55;2.10;;;26.00;99.90;;;;;;5116839;27;20251;-78
2023/08/18 09:48:53;;;;;;;3.90;2.42;;;26.10;99.90;;;;;;5119663;27;20212;-79
2023/08/18 09:51:22;;;;;;;2.65;2.35;;;26.10;99.90;;;;;;5120592;27;20787;-77
2023/08/18 09:53:59;;;;;;;2.75;2.40;;;26.20;99.90;;;;;;5115508;27;20200;-78
2023/08/18 09:56:31;;;;;;;2.58;2.38;;;26.40;99.90;;;;;;5121514;27;20220;-77
2023/08/18 09:59:09;;;;;;;4.40;2.63;;;26.70;99.90;;;;;;5118811;27;20709;-79
2023/08/18 10:01:38;;;;;;;2.50;2.30;;;26.50;99.90;;;;;;5115713;27;20199;-77
2023/08/18 10:04:08;;;;;;;3.60;2.55;;;26.30;99.90;;;;;;5117147;27;20204;-79
2023/08/18 10:06:39;;;;;;;2.85;2.60;;;26.20;99.90;;;;;;5120173;27;20222;-77
2023/08/18 10:09:07;;;;;;;2.92;2.30;;;26.30;99.90;;;;;;5124473;27;20662;-78
2023/08/18 10:11:35;;;;;;;3.72;2.53;;;26.60;99.90;;;;;;5121093;27;20207;-78
2023/08/18 10:14:03;;;;;;;2.53;2.22;;;26.90;99.90;;;;;;5121639;27;20223;-77
2023/08/18 10:16:32;;;;;;;3.28;2.33;;;27.20;99.90;;;;;;5115716;27;20311;-78
2023/08/18 10:18:59;;;;;;;2.47;2.28;;;27.50;99.90;;;;;;5112689;27;20284;-79
2023/08/18 10:21:29;;;;;;;2.70;2.50;;;27.40;99.90;;;;;;5113301;27;20284;-76
2023/08/18 10:23:56;;;;;;;4.40;2.47;;;27.20;99.90;;;;;;5108044;27;20265;-77
2023/08/18 10:26:24;;;;;;;2.88;2.50;;;27.10;99.90;;;;;;5113974;27;20216;-78
2023/08/18 10:28:51;;;;;;;2.88;2.50;;;27.10;99.90;;;;;;5111891;27;20212;-78
2023/08/18 10:31:18;;;;;;;2.70;2.50;;;26.90;99.90;;;;;;5110538;27;20746;-77
2023/08/18 10:33:48;;;;;;;3.60;2.95;;;26.80;99.90;;;;;;5113347;27;20232;-78
2023/08/18 10:36:21;;;;;;;2.60;2.40;;;26.70;99.90;;;;;;5116270;27;20220;-77
2023/08/18 10:38:51;;;;;;;2.55;2.35;;;26.80;99.90;;;;;;5115981;27;20331;-78
2023/08/18 10:41:26;;;;;;;2.72;2.47;;;27.10;99.90;;;;;;5114578;27;20200;-78
2023/08/18 10:43:56;;;;;;;3.00;2.65;;;27.00;99.90;;;;;;5112388;27;20195;-79
2023/08/18 10:46:33;;;;;;;4.10;2.40;;;27.00;99.90;;;;;;5120061;27;20308;-77
2023/08/18 10:49:00;;;;;;;5.15;2.58;;;27.00;99.90;;;;;;5116191;27;20220;-77
2023/08/18 10:51:28;;;;;;;2.50;2.30;;;27.10;99.90;;;;;;5119559;27;20206;-77
2023/08/18 10:53:56;;;;;;;2.85;2.20;;;27.10;99.90;;;;;;5123795;27;20256;-77
2023/08/18 10:56:23;;;;;;;2.40;2.20;;;27.10;99.90;;;;;;5112042;27;20271;-79
2023/08/18 10:58:51;;;;;;;2.55;2.35;;;27.40;99.90;;;;;;5112336;27;20235;-78
2023/08/18 11:01:20;;;;;;;4.78;2.65;;;27.40;99.90;;;;;;5114150;27;20659;-78
2023/08/18 11:03:47;;;;;;;2.85;2.60;;;27.40;99.90;;;;;;5121719;27;20207;-78
2023/08/18 11:06:14;;;;;;;2.13;2.03;;;27.50;99.90;;;;;;5110203;27;20293;-78
2023/08/18 11:08:41;;;;;;;2.88;2.40;;;27.70;99.90;;;;;;5116395;27;20241;-78
2023/08/18 11:11:12;;;;;;;2.50;2.08;;;27.90;99.90;;;;;;5115741;27;20235;-80
2023/08/18 11:13:42;;;;;;;2.72;2.33;;;28.20;99.90;;;;;;5117464;27;20283;-78
2023/08/18 11:16:09;;;;;;;7.47;2.92;;;28.30;99.90;;;;;;5118845;27;20268;-78
2023/08/18 11:18:36;;;;;;;5.60;2.53;;;28.00;99.90;;;;;;5120288;27;20193;-78
2023/08/18 11:21:03;;;;;;;2.80;2.50;;;28.10;99.90;;;;;;5120475;27;20228;-78
2023/08/18 11:23:31;;;;;;;2.55;2.10;;;28.30;99.90;;;;;;5127705;27;20204;-77
2023/08/18 11:25:58;;;;;;;2.42;2.22;;;28.30;99.90;;;;;;5122980;27;20220;-77
2023/08/18 11:28:26;;;;;;;2.08;1.98;;;28.30;99.90;;;;;;5123807;27;20649;-78
2023/08/18 11:30:55;;;;;;;2.17;2.08;;;28.30;99.90;;;;;;5118136;27;20229;-77
2023/08/18 11:33:25;;;;;;;2.60;2.40;;;28.40;99.90;;;;;;5124513;27;20197;-78
2023/08/18 11:35:52;;;;;;;2.40;2.20;;;28.50;99.90;;;;;;5124306;27;20251;-79
2023/08/18 11:38:22;;;;;;;2.25;2.00;;;28.50;99.90;;;;;;5126173;27;20188;-79
2023/08/18 11:41:05;;;;;;;4.97;2.60;;;28.60;99.90;;;;;;5124269;27;20238;-78
2023/08/18 12:03:06;;;;;;;2.20;2.10;;;28.90;99.90;;;;;;5067767;22;20242;-73
2023/08/18 12:05:37;;;;;;;2.80;2.55;;;29.10;99.90;;;;;;5074312;28;20298;-73
2023/08/18 12:08:09;;;;;;;4.03;2.35;;;29.20;99.90;;;;;;5079082;28;20304;-73
2023/08/18 12:10:36;;;;;;;2.83;2.10;;;29.30;99.90;;;;;;5075609;28;20198;-72
2023/08/18 12:13:03;;;;;;;2.28;2.08;;;29.40;99.90;;;;;;5072766;28;20371;-72
2023/08/18 12:15:30;;;;;;;1.60;1.50;;;29.40;99.90;;;;;;5054265;28;20328;-72
2023/08/18 12:17:57;;;;;;;1.90;1.80;;;29.30;99.90;;;;;;5078629;28;20284;-72
2023/08/18 12:20:27;;;;;;;2.50;2.20;;;29.40;99.90;;;;;;5075682;28;20274;-72
2023/08/18 12:22:54;;;;;;;1.92;1.83;;;29.40;99.90;;;;;;5080158;28;20550;-72
2023/08/18 12:25:22;;;;;;;1.98;1.85;;;29.50;99.90;;;;;;5076861;28;20305;-72
2023/08/18 12:27:50;;;;;;;2.40;2.20;;;29.60;99.90;;;;;;5080505;28;20256;-73
2023/08/18 12:30:18;;;;;;;3.22;2.13;;;29.70;99.90;;;;;;5075853;28;20248;-73
2023/08/18 12:32:50;;;;;;;2.72;1.88;;;29.70;99.90;;;;;;5077899;28;20198;-73
2023/08/18 12:35:18;;;;;;;2.42;2.08;;;29.90;99.90;;;;;;5075988;28;20279;-72
2023/08/18 12:37:46;;;;;;;1.90;1.80;;;29.90;99.90;;;;;;5075929;28;20250;-73
2023/08/18 12:40:14;;;;;;;2.42;2.22;;;30.00;99.90;;;;;;5057497;28;20300;-72
2023/08/18 12:42:42;;;;;;;2.15;1.90;;;29.80;99.90;;;;;;5060386;28;20190;-73
2023/08/18 12:45:10;;;;;;;2.35;2.00;;;29.70;99.90;;;;;;5059134;28;20855;-73
2023/08/18 12:47:38;;;;;;;2.40;2.20;;;29.60;99.90;;;;;;5074600;28;20215;-73
2023/08/18 12:50:06;;;;;;;2.00;1.90;;;29.50;99.90;;;;;;5080458;28;20658;-72
2023/08/18 12:52:33;;;;;;;2.20;2.10;;;29.60;99.90;;;;;;5056292;28;20668;-72
2023/08/18 12:55:03;;;;;;;2.55;1.90;;;29.80;99.90;;;;;;5071858;28;20545;-73
2023/08/18 12:57:30;;;;;;;2.00;1.90;;;30.00;99.90;;;;;;5078243;28;20205;-72
2023/08/18 12:59:57;;;;;;;2.17;1.98;;;29.80;99.90;;;;;;5077524;28;20255;-72
2023/08/18 13:02:24;;;;;;;3.50;2.10;;;29.80;99.90;;;;;;5060376;28;20205;-73
2023/08/18 13:04:51;;;;;;;2.45;2.25;;;29.80;99.90;;;;;;5072294;28;20333;-72
2023/08/18 13:07:18;;;;;;;2.20;2.10;;;29.80;99.90;;;;;;5076890;28;20201;-72
2023/08/18 13:09:45;;;;;;;2.10;2.00;;;29.90;99.90;;;;;;5075708;28;20306;-73
2023/08/18 13:12:13;;;;;;;2.00;1.90;;;29.80;99.90;;;;;;5058261;28;20307;-73
2023/08/18 13:14:40;;;;;;;1.90;1.80;;;29.80;99.90;;;;;;5076695;28;20255;-72
2023/08/18 13:17:08;;;;;;;2.33;1.55;;;30.00;99.90;;;;;;5078357;28;20326;-73
2023/08/18 13:19:35;;;;;;;1.42;1.33;;;30.20;99.90;;;;;;5075227;28;20205;-72
2023/08/18 13:22:02;;;;;;;1.40;1.30;;;30.20;99.90;;;;;;5076099;28;20205;-72
2023/08/18 13:24:29;;;;;;;1.70;1.60;;;30.10;99.90;;;;;;5051709;28;20305;-72
2023/08/18 13:26:57;;;;;;;1.42;1.20;;;30.10;99.90;;;;;;5064012;28;20202;-73